Time,TemperatureF,DewpointF,PressureIn,WindDirection,WindDirectionDegrees,WindSpeedMPH,WindSpeedGustMPH,Humidity,HourlyPrecipIn,Conditions,Clouds,dailyrainin,SoftwareType,DateUTC
2013-04-25 00:02:00,29.5,25.8,30.11,WNW,286,7.0,7.0,86,0.00,,,0.00,Wunderground v.1.15,2013-04-25 05:02:00,
2013-04-25 00:08:00,29.8,26.1,30.11,WNW,286,6.0,7.0,86,0.00,,,0.00,Wunderground v.1.15,2013-04-25 05:08:00,
2013-04-25 00:14:00,30.2,26.5,30.11,WNW,286,7.0,8.0,86,0.00,,,0.00,Wunderground v.1.15,2013-04-25 05:14:00,
2013-04-25 00:20:00,30.3,26.6,30.11,WNW,286,7.0,7.0,86,0.00,,,0.00,Wunderground v.1.15,2013-04-25 05:20:00,
2013-04-25 00:26:00,30.2,26.5,30.12,WNW,286,7.0,7.0,86,0.00,,,0.00,Wunderground v.1.15,2013-04-25 05:26:00,
2013-04-25 00:31:00,30.0,26.3,30.11,WNW,286,5.0,6.0,86,0.00,,,0.00,Wunderground v.1.15,2013-04-25 05:31:00,
2013-04-25 00:37:00,29.8,26.1,30.12,WNW,286,4.0,7.0,86,0.00,,,0.00,Wunderground v.1.15,2013-04-25 05:37:00,
2013-04-25 00:43:00,29.3,25.6,30.12,WNW,286,4.0,6.0,86,0.00,,,0.00,Wunderground v.1.15,2013-04-25 05:43:00,
2013-04-25 00:49:00,28.8,25.1,30.12,WNW,286,3.0,6.0,86,0.00,,,0.00,Wunderground v.1.15,2013-04-25 05:49:00,
2013-04-25 00:55:00,28.4,25.0,30.12,WNW,286,3.0,5.0,87,0.00,,,0.00,Wunderground v.1.15,2013-04-25 05:55:00,
2013-04-25 01:01:00,28.5,25.1,30.13,WNW,286,5.0,5.0,87,0.00,,,0.00,Wunderground v.1.15,2013-04-25 06:01:00,
2013-04-25 01:07:00,29.0,25.9,30.13,WNW,286,5.0,7.0,88,0.00,,,0.00,Wunderground v.1.15,2013-04-25 06:07:00,
2013-04-25 01:13:00,29.4,26.3,30.13,WNW,286,5.0,7.0,88,0.00,,,0.00,Wunderground v.1.15,2013-04-25 06:13:00,
2013-04-25 01:19:00,29.3,26.2,30.13,WNW,286,6.0,7.0,88,0.00,,,0.00,Wunderground v.1.15,2013-04-25 06:19:00,
2013-04-25 01:25:00,29.1,26.0,30.13,WNW,286,4.0,5.0,88,0.00,,,0.00,Wunderground v.1.15,2013-04-25 06:25:00,
2013-04-25 01:31:00,28.9,25.5,30.13,WNW,286,6.0,6.0,87,0.00,,,0.00,Wunderground v.1.15,2013-04-25 06:31:00,
2013-04-25 01:36:00,29.0,25.6,30.13,WNW,286,8.0,8.0,87,0.00,,,0.00,Wunderground v.1.15,2013-04-25 06:36:00,
2013-04-25 01:42:00,29.2,25.8,30.13,WNW,291,6.0,6.0,87,0.00,,,0.00,Wunderground v.1.15,2013-04-25 06:42:00,
2013-04-25 01:48:00,29.3,25.9,30.13,WNW,302,6.0,7.0,87,0.00,,,0.00,Wunderground v.1.15,2013-04-25 06:48:00,
2013-04-25 01:53:00,29.1,25.4,30.13,WNW,303,5.0,7.0,86,0.00,,,0.00,Wunderground v.1.15,2013-04-25 06:53:00,
2013-04-25 01:59:00,28.9,25.2,30.14,NW,304,4.0,7.0,86,0.00,,,0.00,Wunderground v.1.15,2013-04-25 06:59:00,
2013-04-25 02:04:00,28.5,24.6,30.14,NW,304,1.0,5.0,85,0.00,,,0.00,Wunderground v.1.15,2013-04-25 07:04:00,
2013-04-25 02:09:00,27.6,23.7,30.14,WNW,303,2.0,5.0,85,0.00,,,0.00,Wunderground v.1.15,2013-04-25 07:09:00,
2013-04-25 02:14:00,26.9,23.0,30.14,NW,304,0.0,2.0,85,0.00,,,0.00,Wunderground v.1.15,2013-04-25 07:14:00,
2013-04-25 02:19:00,26.5,22.6,30.14,NW,304,4.0,4.0,85,0.00,,,0.00,Wunderground v.1.15,2013-04-25 07:19:00,
2013-04-25 02:24:00,26.7,23.1,30.14,NW,306,4.0,8.0,86,0.00,,,0.00,Wunderground v.1.15,2013-04-25 07:24:00,
2013-04-25 02:29:00,26.9,23.3,30.14,NW,306,2.0,8.0,86,0.00,,,0.00,Wunderground v.1.15,2013-04-25 07:29:00,
2013-04-25 02:34:00,26.8,23.2,30.14,NW,306,2.0,5.0,86,0.00,,,0.00,Wunderground v.1.15,2013-04-25 07:34:00,
2013-04-25 02:39:00,26.7,23.1,30.14,NW,306,2.0,5.0,86,0.00,,,0.00,Wunderground v.1.15,2013-04-25 07:39:00,
2013-04-25 02:44:00,26.4,22.5,30.14,NW,306,1.0,3.0,85,0.00,,,0.00,Wunderground v.1.15,2013-04-25 07:44:00,
2013-04-25 02:49:00,26.1,22.2,30.14,NW,306,2.0,3.0,85,0.00,,,0.00,Wunderground v.1.15,2013-04-25 07:49:00,
2013-04-25 02:54:00,26.0,22.1,30.14,NW,306,2.0,3.0,85,0.00,,,0.00,Wunderground v.1.15,2013-04-25 07:54:00,
2013-04-25 02:59:00,25.7,21.8,30.14,NW,306,1.0,3.0,85,0.00,,,0.00,Wunderground v.1.15,2013-04-25 07:59:00,
2013-04-25 03:04:00,25.2,21.0,30.14,NW,306,1.0,3.0,84,0.00,,,0.00,Wunderground v.1.15,2013-04-25 08:04:00,
2013-04-25 03:09:00,25.1,21.2,30.14,NW,306,2.0,4.0,85,0.00,,,0.00,Wunderground v.1.15,2013-04-25 08:09:00,
2013-04-25 03:14:00,25.1,20.9,30.14,NW,306,3.0,4.0,84,0.00,,,0.00,Wunderground v.1.15,2013-04-25 08:14:00,
2013-04-25 03:20:00,25.1,20.9,30.14,NW,306,1.0,2.0,84,0.00,,,0.00,Wunderground v.1.15,2013-04-25 08:20:00,
2013-04-25 03:25:00,25.0,20.8,30.14,NW,306,1.0,3.0,84,0.00,,,0.00,Wunderground v.1.15,2013-04-25 08:25:00,
2013-04-25 03:30:00,25.0,20.8,30.14,NW,306,2.0,2.0,84,0.00,,,0.00,Wunderground v.1.15,2013-04-25 08:30:00,
2013-04-25 03:35:00,24.8,20.4,30.14,NW,306,2.0,4.0,83,0.00,,,0.00,Wunderground v.1.15,2013-04-25 08:35:00,
2013-04-25 03:40:00,25.1,20.9,30.14,NW,306,4.0,4.0,84,0.00,,,0.00,Wunderground v.1.15,2013-04-25 08:40:00,
2013-04-25 03:45:00,25.4,21.0,30.14,NW,306,4.0,5.0,83,0.00,,,0.00,Wunderground v.1.15,2013-04-25 08:45:00,
2013-04-25 03:50:00,25.3,20.9,30.14,NW,306,5.0,5.0,83,0.00,,,0.00,Wunderground v.1.15,2013-04-25 08:50:00,
2013-04-25 03:55:00,25.6,21.2,30.14,NW,306,6.0,8.0,83,0.00,,,0.00,Wunderground v.1.15,2013-04-25 08:55:00,
2013-04-25 04:00:00,25.8,20.8,30.15,NW,305,4.0,5.0,81,0.00,,,0.00,Wunderground v.1.15,2013-04-25 09:00:00,
2013-04-25 04:05:00,25.7,20.4,30.15,NW,305,4.0,6.0,80,0.00,,,0.00,Wunderground v.1.15,2013-04-25 09:05:00,
2013-04-25 04:10:00,25.6,20.3,30.15,NW,305,3.0,4.0,80,0.00,,,0.00,Wunderground v.1.15,2013-04-25 09:10:00,
2013-04-25 04:15:00,25.5,20.2,30.15,NW,304,3.0,6.0,80,0.00,,,0.00,Wunderground v.1.15,2013-04-25 09:15:00,
2013-04-25 04:20:00,25.6,20.6,30.15,NW,305,4.0,4.0,81,0.00,,,0.00,Wunderground v.1.15,2013-04-25 09:20:00,
2013-04-25 04:25:00,25.8,20.8,30.16,NW,305,4.0,6.0,81,0.00,,,0.00,Wunderground v.1.15,2013-04-25 09:25:00,
2013-04-25 04:30:00,26.2,21.2,30.16,NW,305,5.0,6.0,81,0.00,,,0.00,Wunderground v.1.15,2013-04-25 09:30:00,
2013-04-25 04:35:00,26.4,21.1,30.16,NW,304,3.0,7.0,80,0.00,,,0.00,Wunderground v.1.15,2013-04-25 09:35:00,
2013-04-25 04:40:00,26.4,21.1,30.16,NW,304,4.0,6.0,80,0.00,,,0.00,Wunderground v.1.15,2013-04-25 09:40:00,
2013-04-25 04:45:00,26.4,21.1,30.16,NW,304,5.0,7.0,80,0.00,,,0.00,Wunderground v.1.15,2013-04-25 09:45:00,
2013-04-25 04:50:00,26.4,21.4,30.16,NW,304,3.0,5.0,81,0.00,,,0.00,Wunderground v.1.15,2013-04-25 09:50:00,
2013-04-25 04:55:00,26.5,21.5,30.16,NW,304,5.0,7.0,81,0.00,,,0.00,Wunderground v.1.15,2013-04-25 09:55:00,
2013-04-25 05:00:00,26.2,21.2,30.16,NW,304,3.0,4.0,81,0.00,,,0.00,Wunderground v.1.15,2013-04-25 10:00:00,
2013-04-25 05:06:00,25.8,20.8,30.16,NW,304,2.0,4.0,81,0.00,,,0.00,Wunderground v.1.15,2013-04-25 10:06:00,
2013-04-25 05:11:00,25.4,20.4,30.16,NW,304,1.0,3.0,81,0.00,,,0.00,Wunderground v.1.15,2013-04-25 10:11:00,
2013-04-25 05:16:00,24.9,20.2,30.16,NW,304,2.0,4.0,82,0.00,,,0.00,Wunderground v.1.15,2013-04-25 10:16:00,
2013-04-25 05:21:00,24.6,19.9,30.16,NW,304,1.0,2.0,82,0.00,,,0.00,Wunderground v.1.15,2013-04-25 10:21:00,
2013-04-25 05:26:00,24.4,19.7,30.16,NW,304,1.0,3.0,82,0.00,,,0.00,Wunderground v.1.15,2013-04-25 10:26:00,
2013-04-25 05:31:00,24.3,19.6,30.16,NW,304,0.0,1.0,82,0.00,,,0.00,Wunderground v.1.15,2013-04-25 10:31:00,
2013-04-25 05:36:00,24.1,19.4,30.16,NW,304,1.0,1.0,82,0.00,,,0.00,Wunderground v.1.15,2013-04-25 10:36:00,
2013-04-25 05:41:00,23.9,19.2,30.17,NW,304,0.0,1.0,82,0.00,,,0.00,Wunderground v.1.15,2013-04-25 10:41:00,
2013-04-25 05:46:00,23.5,18.8,30.17,NW,304,0.0,1.0,82,0.00,,,0.00,Wunderground v.1.15,2013-04-25 10:46:00,
2013-04-25 05:51:00,23.0,18.3,30.17,NW,304,0.0,0.0,82,0.00,,,0.00,Wunderground v.1.15,2013-04-25 10:51:00,
2013-04-25 05:56:00,22.7,18.3,30.17,NW,304,1.0,2.0,83,0.00,,,0.00,Wunderground v.1.15,2013-04-25 10:56:00,
2013-04-25 06:01:00,22.6,18.2,30.17,NW,304,2.0,2.0,83,0.00,,,0.00,Wunderground v.1.15,2013-04-25 11:01:00,
2013-04-25 06:06:00,22.6,18.2,30.17,NW,304,2.0,3.0,83,0.00,,,0.00,Wunderground v.1.15,2013-04-25 11:06:00,
2013-04-25 06:11:00,22.5,18.1,30.17,NW,304,1.0,2.0,83,0.00,,,0.00,Wunderground v.1.15,2013-04-25 11:11:00,
2013-04-25 06:16:00,22.4,18.0,30.17,NW,304,1.0,2.0,83,0.00,,,0.00,Wunderground v.1.15,2013-04-25 11:16:00,
2013-04-25 06:22:00,22.2,17.8,30.18,NW,304,0.0,1.0,83,0.00,,,0.00,Wunderground v.1.15,2013-04-25 11:22:00,
2013-04-25 06:27:00,22.1,18.0,30.18,NW,304,0.0,1.0,84,0.00,,,0.00,Wunderground v.1.15,2013-04-25 11:27:00,
2013-04-25 06:32:00,22.1,18.0,30.18,NW,304,0.0,0.0,84,0.00,,,0.00,Wunderground v.1.15,2013-04-25 11:32:00,
2013-04-25 06:37:00,21.9,17.8,30.18,NW,304,0.0,0.0,84,0.00,,,0.00,Wunderground v.1.15,2013-04-25 11:37:00,
2013-04-25 06:42:00,22.1,18.0,30.19,NW,304,0.0,0.0,84,0.00,,,0.00,Wunderground v.1.15,2013-04-25 11:42:00,
2013-04-25 06:47:00,22.0,17.9,30.19,NW,304,0.0,0.0,84,0.00,,,0.00,Wunderground v.1.15,2013-04-25 11:47:00,
2013-04-25 06:52:00,21.6,17.2,30.20,WNW,300,0.0,0.0,83,0.00,,,0.00,Wunderground v.1.15,2013-04-25 11:52:00,
2013-04-25 06:57:00,21.3,16.9,30.20,WNW,300,0.0,0.0,83,0.00,,,0.00,Wunderground v.1.15,2013-04-25 11:57:00,
2013-04-25 07:02:00,21.4,17.3,30.20,NW,309,1.0,1.0,84,0.00,,,0.00,Wunderground v.1.15,2013-04-25 12:02:00,
2013-04-25 07:07:00,22.3,18.5,30.20,NW,309,2.0,3.0,85,0.00,,,0.00,Wunderground v.1.15,2013-04-25 12:07:00,
2013-04-25 07:12:00,23.4,19.6,30.20,NW,321,2.0,3.0,85,0.00,,,0.00,Wunderground v.1.15,2013-04-25 12:12:00,
2013-04-25 07:17:00,24.2,20.3,30.20,West,273,1.0,3.0,85,0.00,,,0.00,Wunderground v.1.15,2013-04-25 12:17:00,
2013-04-25 07:22:00,24.9,21.0,30.20,West,273,3.0,4.0,85,0.00,,,0.00,Wunderground v.1.15,2013-04-25 12:22:00,
2013-04-25 07:27:00,25.6,21.4,30.21,West,273,3.0,4.0,84,0.00,,,0.00,Wunderground v.1.15,2013-04-25 12:27:00,
2013-04-25 07:32:00,26.1,21.6,30.21,West,273,3.0,5.0,83,0.00,,,0.00,Wunderground v.1.15,2013-04-25 12:32:00,
2013-04-25 07:37:00,26.5,22.0,30.21,West,273,2.0,5.0,83,0.00,,,0.00,Wunderground v.1.15,2013-04-25 12:37:00,
2013-04-25 07:42:00,26.9,22.4,30.21,West,272,2.0,3.0,83,0.00,,,0.00,Wunderground v.1.15,2013-04-25 12:42:00,
2013-04-25 07:47:00,27.3,22.5,30.21,West,273,1.0,4.0,82,0.00,,,0.00,Wunderground v.1.15,2013-04-25 12:47:00,
2013-04-25 07:52:00,27.8,23.0,30.22,West,272,3.0,4.0,82,0.00,,,0.00,Wunderground v.1.15,2013-04-25 12:52:00,
2013-04-25 07:57:00,28.2,22.8,30.22,West,273,5.0,7.0,80,0.00,,,0.00,Wunderground v.1.15,2013-04-25 12:57:00,
2013-04-25 08:02:00,28.3,22.9,30.22,West,263,5.0,7.0,80,0.00,,,0.00,Wunderground v.1.15,2013-04-25 13:02:00,
2013-04-25 08:07:00,28.5,23.1,30.22,West,263,3.0,7.0,80,0.00,,,0.00,Wunderground v.1.15,2013-04-25 13:07:00,
2013-04-25 08:12:00,28.6,23.2,30.22,West,263,6.0,7.0,80,0.00,,,0.00,Wunderground v.1.15,2013-04-25 13:12:00,
2013-04-25 08:17:00,28.6,22.9,30.22,West,263,4.0,7.0,79,0.00,,,0.00,Wunderground v.1.15,2013-04-25 13:17:00,
2013-04-25 08:22:00,28.9,23.2,30.23,West,263,3.0,7.0,79,0.00,,,0.00,Wunderground v.1.15,2013-04-25 13:22:00,
2013-04-25 08:27:00,29.3,23.3,30.23,West,261,2.0,8.0,78,0.00,,,0.00,Wunderground v.1.15,2013-04-25 13:27:00,
2013-04-25 08:33:00,29.6,23.0,30.23,West,262,5.0,7.0,76,0.00,,,0.00,Wunderground v.1.15,2013-04-25 13:33:00,
2013-04-25 08:38:00,30.1,23.4,30.22,West,261,4.0,7.0,76,0.00,,,0.00,Wunderground v.1.15,2013-04-25 13:38:00,
2013-04-25 08:43:00,30.4,23.4,30.23,West,261,6.0,8.0,75,0.00,,,0.00,Wunderground v.1.15,2013-04-25 13:43:00,
2013-04-25 08:48:00,30.7,23.4,30.23,West,261,6.0,8.0,74,0.00,,,0.00,Wunderground v.1.15,2013-04-25 13:48:00,
2013-04-25 08:53:00,31.0,23.4,30.23,West,264,6.0,9.0,73,0.00,,,0.00,Wunderground v.1.15,2013-04-25 13:53:00,
2013-04-25 08:58:00,31.4,23.4,30.23,West,264,6.0,9.0,72,0.00,,,0.00,Wunderground v.1.15,2013-04-25 13:58:00,
2013-04-25 09:03:00,31.8,24.1,30.23,West,262,5.0,8.0,73,0.00,,,0.00,Wunderground v.1.15,2013-04-25 14:03:00,
2013-04-25 09:08:00,32.3,24.3,30.22,West,263,7.0,9.0,72,0.00,,,0.00,Wunderground v.1.15,2013-04-25 14:08:00,
2013-04-25 09:13:00,32.6,24.2,30.22,West,264,7.0,8.0,71,0.00,,,0.00,Wunderground v.1.15,2013-04-25 14:13:00,
2013-04-25 09:18:00,33.3,24.2,30.22,West,266,6.0,8.0,69,0.00,,,0.00,Wunderground v.1.15,2013-04-25 14:18:00,
2013-04-25 09:23:00,33.8,22.9,30.22,WNW,289,6.0,8.0,64,0.00,,,0.00,Wunderground v.1.15,2013-04-25 14:23:00,
2013-04-25 09:28:00,34.2,23.7,30.22,WNW,284,5.0,8.0,65,0.00,,,0.00,Wunderground v.1.15,2013-04-25 14:28:00,
2013-04-25 09:33:00,34.4,23.1,30.22,West,277,9.0,10.0,63,0.00,,,0.00,Wunderground v.1.15,2013-04-25 14:33:00,
2013-04-25 09:38:00,34.4,22.7,30.22,West,276,7.0,10.0,62,0.00,,,0.00,Wunderground v.1.15,2013-04-25 14:38:00,
2013-04-25 09:43:00,34.9,23.6,30.22,West,275,3.0,9.0,63,0.00,,,0.00,Wunderground v.1.15,2013-04-25 14:43:00,
2013-04-25 09:48:00,35.4,23.3,30.22,West,275,9.0,9.0,61,0.00,,,0.00,Wunderground v.1.15,2013-04-25 14:48:00,
2013-04-25 09:53:00,35.8,23.3,30.22,West,275,6.0,7.0,60,0.00,,,0.00,Wunderground v.1.15,2013-04-25 14:53:00,
2013-04-25 09:58:00,36.1,23.5,30.21,West,275,4.0,9.0,60,0.00,,,0.00,Wunderground v.1.15,2013-04-25 14:58:00,
2013-04-25 10:03:00,36.6,24.4,30.21,West,275,8.0,8.0,61,0.00,,,0.00,Wunderground v.1.15,2013-04-25 15:03:00,
2013-04-25 10:08:00,37.2,23.8,30.21,West,274,8.0,10.0,58,0.00,,,0.00,Wunderground v.1.15,2013-04-25 15:08:00,
2013-04-25 10:13:00,37.4,24.0,30.21,West,276,3.0,8.0,58,0.00,,,0.00,Wunderground v.1.15,2013-04-25 15:13:00,
2013-04-25 10:18:00,37.9,24.8,30.21,West,276,4.0,8.0,59,0.00,,,0.00,Wunderground v.1.15,2013-04-25 15:18:00,
2013-04-25 10:23:00,38.3,24.4,30.21,West,272,6.0,8.0,57,0.00,,,0.00,Wunderground v.1.15,2013-04-25 15:23:00,
2013-04-25 10:28:00,38.4,24.9,30.21,West,272,4.0,8.0,58,0.00,,,0.00,Wunderground v.1.15,2013-04-25 15:28:00,
2013-04-25 10:33:00,38.7,24.8,30.21,West,272,5.0,8.0,57,0.00,,,0.00,Wunderground v.1.15,2013-04-25 15:33:00,
2013-04-25 10:38:00,39.5,25.1,30.21,West,273,5.0,9.0,56,0.00,,,0.00,Wunderground v.1.15,2013-04-25 15:38:00,
2013-04-25 10:43:00,39.6,23.9,30.21,West,270,2.0,8.0,53,0.00,,,0.00,Wunderground v.1.15,2013-04-25 15:43:00,
2013-04-25 10:48:00,39.7,25.3,30.21,West,269,2.0,8.0,56,0.00,,,0.00,Wunderground v.1.15,2013-04-25 15:48:00,
2013-04-25 10:53:00,40.1,24.8,30.21,West,269,5.0,8.0,54,0.00,,,0.00,Wunderground v.1.15,2013-04-25 15:53:00,
2013-04-25 10:58:00,40.9,24.6,30.21,West,267,3.0,10.0,52,0.00,,,0.00,Wunderground v.1.15,2013-04-25 15:58:00,
2013-04-25 11:04:00,41.1,25.7,30.21,West,267,3.0,9.0,54,0.00,,,0.00,Wunderground v.1.15,2013-04-25 16:04:00,
2013-04-25 11:09:00,41.0,25.2,30.21,West,267,2.0,9.0,53,0.00,,,0.00,Wunderground v.1.15,2013-04-25 16:09:00,
2013-04-25 11:14:00,41.6,25.7,30.21,West,267,3.0,7.0,53,0.00,,,0.00,Wunderground v.1.15,2013-04-25 16:14:00,
2013-04-25 11:19:00,41.7,25.8,30.21,West,267,5.0,7.0,53,0.00,,,0.00,Wunderground v.1.15,2013-04-25 16:19:00,
2013-04-25 11:24:00,41.9,25.5,30.21,West,267,2.0,6.0,52,0.00,,,0.00,Wunderground v.1.15,2013-04-25 16:24:00,
2013-04-25 11:29:00,42.0,26.5,30.21,West,263,8.0,9.0,54,0.00,,,0.00,Wunderground v.1.15,2013-04-25 16:29:00,
2013-04-25 11:34:00,42.3,25.4,30.21,West,263,2.0,5.0,51,0.00,,,0.00,Wunderground v.1.15,2013-04-25 16:34:00,
2013-04-25 11:39:00,42.4,26.5,30.21,West,263,7.0,8.0,53,0.00,,,0.00,Wunderground v.1.15,2013-04-25 16:39:00,
2013-04-25 11:44:00,42.4,26.5,30.21,West,263,2.0,8.0,53,0.00,,,0.00,Wunderground v.1.15,2013-04-25 16:44:00,
2013-04-25 11:49:00,42.9,27.4,30.20,West,263,4.0,9.0,54,0.00,,,0.00,Wunderground v.1.15,2013-04-25 16:49:00,
2013-04-25 11:54:00,43.2,28.1,30.20,WSW,258,3.0,7.0,55,0.00,,,0.00,Wunderground v.1.15,2013-04-25 16:54:00,
2013-04-25 11:59:00,43.4,28.3,30.20,WSW,252,7.0,9.0,55,0.00,,,0.00,Wunderground v.1.15,2013-04-25 16:59:00,
2013-04-25 12:04:00,43.6,27.6,30.20,SW,232,4.0,11.0,53,0.00,,,0.00,Wunderground v.1.15,2013-04-25 17:04:00,
2013-04-25 12:09:00,44.0,28.9,30.20,SW,232,3.0,11.0,55,0.00,,,0.00,Wunderground v.1.15,2013-04-25 17:09:00,
2013-04-25 12:14:00,44.5,28.4,30.20,SW,229,7.0,11.0,53,0.00,,,0.00,Wunderground v.1.15,2013-04-25 17:14:00,
2013-04-25 12:19:00,44.3,28.7,30.19,SW,230,2.0,11.0,54,0.00,,,0.00,Wunderground v.1.15,2013-04-25 17:19:00,
2013-04-25 12:24:00,45.4,30.2,30.19,SW,223,5.0,10.0,55,0.00,,,0.00,Wunderground v.1.15,2013-04-25 17:24:00,
2013-04-25 12:29:00,45.2,29.5,30.19,SW,224,8.0,10.0,54,0.00,,,0.00,Wunderground v.1.15,2013-04-25 17:29:00,
2013-04-25 12:34:00,45.3,30.5,30.19,SSW,213,1.0,10.0,56,0.00,,,0.00,Wunderground v.1.15,2013-04-25 17:34:00,
2013-04-25 12:39:00,45.7,30.4,30.19,SSW,207,9.0,10.0,55,0.00,,,0.00,Wunderground v.1.15,2013-04-25 17:39:00,
2013-04-25 12:44:00,46.1,30.4,30.18,SSW,206,4.0,8.0,54,0.00,,,0.00,Wunderground v.1.15,2013-04-25 17:44:00,
2013-04-25 12:49:00,47.0,30.7,30.18,SSW,206,7.0,10.0,53,0.00,,,0.00,Wunderground v.1.15,2013-04-25 17:49:00,
2013-04-25 12:54:00,47.3,31.0,30.18,SW,227,8.0,13.0,53,0.00,,,0.00,Wunderground v.1.15,2013-04-25 17:54:00,
2013-04-25 12:59:00,47.8,31.9,30.18,SW,223,8.0,13.0,54,0.00,,,0.00,Wunderground v.1.15,2013-04-25 17:59:00,
2013-04-25 13:04:00,48.3,32.4,30.18,SW,229,8.0,14.0,54,0.00,,,0.00,Wunderground v.1.15,2013-04-25 18:04:00,
2013-04-25 13:09:00,48.3,32.4,30.17,South,170,10.0,14.0,54,0.00,,,0.00,Wunderground v.1.15,2013-04-25 18:09:00,
2013-04-25 13:14:00,47.9,32.9,30.17,SSE,161,9.0,19.0,56,0.00,,,0.00,Wunderground v.1.15,2013-04-25 18:14:00,
2013-04-25 13:19:00,48.5,33.1,30.17,South,178,6.0,19.0,55,0.00,,,0.00,Wunderground v.1.15,2013-04-25 18:19:00,
2013-04-25 13:24:00,48.5,33.5,30.16,South,173,10.0,13.0,56,0.00,,,0.00,Wunderground v.1.15,2013-04-25 18:24:00,
2013-04-25 13:29:00,49.5,33.5,30.16,SW,221,6.0,13.0,54,0.00,,,0.00,Wunderground v.1.15,2013-04-25 18:29:00,
2013-04-25 13:34:00,50.0,33.5,30.16,SSW,204,6.0,12.0,53,0.00,,,0.00,Wunderground v.1.15,2013-04-25 18:34:00,
2013-04-25 13:39:00,49.7,32.8,30.16,SSW,195,6.0,16.0,52,0.00,,,0.00,Wunderground v.1.15,2013-04-25 18:39:00,
2013-04-25 13:44:00,49.8,33.8,30.15,SSW,194,5.0,11.0,54,0.00,,,0.00,Wunderground v.1.15,2013-04-25 18:44:00,
2013-04-25 13:49:00,50.6,34.6,30.15,SSW,194,6.0,15.0,54,0.00,,,0.00,Wunderground v.1.15,2013-04-25 18:49:00,
2013-04-25 13:54:00,50.7,33.7,30.15,South,181,9.0,17.0,52,0.00,,,0.00,Wunderground v.1.15,2013-04-25 18:54:00,
2013-04-25 13:59:00,51.5,36.3,30.15,South,177,12.0,17.0,56,0.00,,,0.00,Wunderground v.1.15,2013-04-25 18:59:00,
2013-04-25 14:04:00,51.4,34.3,30.15,SSW,202,5.0,18.0,52,0.00,,,0.00,Wunderground v.1.15,2013-04-25 19:04:00,
2013-04-25 14:09:00,52.1,35.0,30.15,SSW,197,7.0,18.0,52,0.00,,,0.00,Wunderground v.1.15,2013-04-25 19:09:00,
2013-04-25 14:14:00,52.5,35.4,30.14,SSW,210,16.0,17.0,52,0.00,,,0.00,Wunderground v.1.15,2013-04-25 19:14:00,
2013-04-25 14:19:00,52.6,35.0,30.14,South,182,14.0,20.0,51,0.00,,,0.00,Wunderground v.1.15,2013-04-25 19:19:00,
2013-04-25 14:24:00,52.4,35.3,30.14,South,185,7.0,20.0,52,0.00,,,0.00,Wunderground v.1.15,2013-04-25 19:24:00,
2013-04-25 14:30:00,52.8,34.7,30.14,SW,222,11.0,11.0,50,0.00,,,0.00,Wunderground v.1.15,2013-04-25 19:30:00,
2013-04-25 14:35:00,53.3,35.1,30.14,SSE,162,11.0,15.0,50,0.00,,,0.00,Wunderground v.1.15,2013-04-25 19:35:00,
2013-04-25 14:40:00,53.9,35.2,30.14,SSW,194,7.0,12.0,49,0.00,,,0.00,Wunderground v.1.15,2013-04-25 19:40:00,
2013-04-25 14:45:00,53.2,35.5,30.13,South,172,10.0,12.0,51,0.00,,,0.00,Wunderground v.1.15,2013-04-25 19:45:00,
2013-04-25 14:50:00,53.0,34.8,30.13,South,178,11.0,12.0,50,0.00,,,0.00,Wunderground v.1.15,2013-04-25 19:50:00,
2013-04-25 14:55:00,53.2,35.0,30.13,South,183,12.0,13.0,50,0.00,,,0.00,Wunderground v.1.15,2013-04-25 19:55:00,
2013-04-25 15:00:00,53.8,36.6,30.12,SSW,206,9.0,12.0,52,0.00,,,0.00,Wunderground v.1.15,2013-04-25 20:00:00,
2013-04-25 15:06:00,54.0,35.3,30.12,South,180,6.0,18.0,49,0.00,,,0.00,Wunderground v.1.15,2013-04-25 20:06:00,
2013-04-25 15:11:00,54.6,34.8,30.12,SSW,196,10.0,11.0,47,0.00,,,0.00,Wunderground v.1.15,2013-04-25 20:11:00,
2013-04-25 15:16:00,54.8,36.0,30.11,SW,222,12.0,15.0,49,0.00,,,0.00,Wunderground v.1.15,2013-04-25 20:16:00,
2013-04-25 15:21:00,55.1,35.7,30.11,South,182,10.0,10.0,48,0.00,,,0.00,Wunderground v.1.15,2013-04-25 20:21:00,
2013-04-25 15:26:00,55.3,35.9,30.11,South,178,18.0,18.0,48,0.00,,,0.00,Wunderground v.1.15,2013-04-25 20:26:00,
2013-04-25 15:31:00,55.4,36.0,30.10,South,172,9.0,10.0,48,0.00,,,0.00,Wunderground v.1.15,2013-04-25 20:31:00,
2013-04-25 15:36:00,55.4,36.0,30.10,SSW,209,11.0,15.0,48,0.00,,,0.00,Wunderground v.1.15,2013-04-25 20:36:00,
2013-04-25 15:41:00,55.8,35.9,30.09,SSW,194,7.0,10.0,47,0.00,,,0.00,Wunderground v.1.15,2013-04-25 20:41:00,
2013-04-25 15:46:00,56.0,36.6,30.09,South,181,12.0,19.0,48,0.00,,,0.00,Wunderground v.1.15,2013-04-25 20:46:00,
2013-04-25 15:51:00,55.9,35.9,30.09,SSE,157,15.0,15.0,47,0.00,,,0.00,Wunderground v.1.15,2013-04-25 20:51:00,
2013-04-25 15:56:00,56.4,36.4,30.08,South,179,10.0,17.0,47,0.00,,,0.00,Wunderground v.1.15,2013-04-25 20:56:00,
2013-04-25 16:01:00,56.5,34.8,30.08,South,189,9.0,10.0,44,0.00,,,0.00,Wunderground v.1.15,2013-04-25 21:01:00,
2013-04-25 16:06:00,57.6,36.4,30.07,South,184,8.0,15.0,45,0.00,,,0.00,Wunderground v.1.15,2013-04-25 21:06:00,
2013-04-25 16:11:00,57.1,35.4,30.07,South,176,7.0,14.0,44,0.00,,,0.00,Wunderground v.1.15,2013-04-25 21:11:00,
2013-04-25 16:16:00,57.0,35.9,30.07,SSW,192,11.0,16.0,45,0.00,,,0.00,Wunderground v.1.15,2013-04-25 21:16:00,
2013-04-25 16:21:00,57.4,35.1,30.06,South,180,8.0,16.0,43,0.00,,,0.00,Wunderground v.1.15,2013-04-25 21:21:00,
2013-04-25 16:26:00,57.8,35.4,30.06,SSE,156,11.0,16.0,43,0.00,,,0.00,Wunderground v.1.15,2013-04-25 21:26:00,
2013-04-25 16:31:00,57.6,34.7,30.06,South,181,14.0,22.0,42,0.00,,,0.00,Wunderground v.1.15,2013-04-25 21:31:00,
2013-04-25 16:36:00,57.4,35.1,30.06,South,176,16.0,22.0,43,0.00,,,0.00,Wunderground v.1.15,2013-04-25 21:36:00,
2013-04-25 16:41:00,57.7,35.3,30.06,South,184,6.0,12.0,43,0.00,,,0.00,Wunderground v.1.15,2013-04-25 21:41:00,
2013-04-25 16:46:00,58.0,35.0,30.05,SSE,167,17.0,20.0,42,0.00,,,0.00,Wunderground v.1.15,2013-04-25 21:46:00,
2013-04-25 16:51:00,58.0,36.8,30.05,South,183,13.0,14.0,45,0.00,,,0.00,Wunderground v.1.15,2013-04-25 21:51:00,
2013-04-25 16:56:00,58.7,36.2,30.05,SSW,194,14.0,16.0,43,0.00,,,0.00,Wunderground v.1.15,2013-04-25 21:56:00,
2013-04-25 17:01:00,58.5,36.1,30.05,South,172,9.0,14.0,43,0.00,,,0.00,Wunderground v.1.15,2013-04-25 22:01:00,
2013-04-25 17:06:00,58.5,36.1,30.04,South,180,14.0,15.0,43,0.00,,,0.00,Wunderground v.1.15,2013-04-25 22:06:00,
2013-04-25 17:11:00,59.0,37.7,30.04,South,171,8.0,16.0,45,0.00,,,0.00,Wunderground v.1.15,2013-04-25 22:11:00,
2013-04-25 17:16:00,58.6,36.7,30.04,South,177,7.0,16.0,44,0.00,,,0.00,Wunderground v.1.15,2013-04-25 22:16:00,
2013-04-25 17:21:00,59.0,37.7,30.04,South,178,11.0,15.0,45,0.00,,,0.00,Wunderground v.1.15,2013-04-25 22:21:00,
2013-04-25 17:26:00,59.0,37.7,30.04,South,170,13.0,17.0,45,0.00,,,0.00,Wunderground v.1.15,2013-04-25 22:26:00,
2013-04-25 17:31:00,58.1,36.9,30.03,South,186,11.0,12.0,45,0.00,,,0.00,Wunderground v.1.15,2013-04-25 22:31:00,
2013-04-25 17:36:00,58.4,37.1,30.03,South,178,10.0,16.0,45,0.00,,,0.00,Wunderground v.1.15,2013-04-25 22:36:00,
2013-04-25 17:41:00,57.9,36.7,30.03,SSE,167,9.0,15.0,45,0.00,,,0.00,Wunderground v.1.15,2013-04-25 22:41:00,
2013-04-25 17:46:00,58.2,36.9,30.03,SSE,150,15.0,18.0,45,0.00,,,0.00,Wunderground v.1.15,2013-04-25 22:46:00,
2013-04-25 17:51:00,59.0,37.1,30.02,SSE,165,14.0,15.0,44,0.00,,,0.00,Wunderground v.1.15,2013-04-25 22:51:00,
2013-04-25 17:56:00,59.1,36.0,30.02,SSE,161,11.0,17.0,42,0.00,,,0.00,Wunderground v.1.15,2013-04-25 22:56:00,
2013-04-25 18:01:00,59.5,36.4,30.02,SSE,160,10.0,16.0,42,0.00,,,0.00,Wunderground v.1.15,2013-04-25 23:01:00,
2013-04-25 18:06:00,59.5,37.6,30.03,SE,146,10.0,16.0,44,0.00,,,0.00,Wunderground v.1.15,2013-04-25 23:06:00,
2013-04-25 18:11:00,59.4,37.5,30.02,South,171,11.0,20.0,44,0.00,,,0.00,Wunderground v.1.15,2013-04-25 23:11:00,
2013-04-25 18:16:00,59.5,37.0,30.02,South,175,7.0,20.0,43,0.00,,,0.00,Wunderground v.1.15,2013-04-25 23:16:00,
2013-04-25 18:21:00,59.5,36.4,30.02,South,182,14.0,20.0,42,0.00,,,0.00,Wunderground v.1.15,2013-04-25 23:21:00,
2013-04-25 18:27:00,59.6,37.1,30.02,South,179,17.0,20.0,43,0.00,,,0.00,Wunderground v.1.15,2013-04-25 23:27:00,
2013-04-25 18:32:00,59.2,36.7,30.02,South,181,8.0,15.0,43,0.00,,,0.00,Wunderground v.1.15,2013-04-25 23:32:00,
2013-04-25 18:37:00,59.2,36.7,30.01,South,183,14.0,16.0,43,0.00,,,0.00,Wunderground v.1.15,2013-04-25 23:37:00,
2013-04-25 18:42:00,59.1,36.0,30.01,South,183,7.0,16.0,42,0.00,,,0.00,Wunderground v.1.15,2013-04-25 23:42:00,
2013-04-25 18:47:00,59.0,36.5,30.01,South,169,11.0,18.0,43,0.00,,,0.00,Wunderground v.1.15,2013-04-25 23:47:00,
2013-04-25 18:52:00,59.0,36.5,30.01,SSE,163,9.0,16.0,43,0.00,,,0.00,Wunderground v.1.15,2013-04-25 23:52:00,
2013-04-25 18:57:00,59.0,37.1,30.01,SSE,168,15.0,16.0,44,0.00,,,0.00,Wunderground v.1.15,2013-04-25 23:57:00,
2013-04-25 19:02:00,59.0,37.1,30.00,South,171,9.0,15.0,44,0.00,,,0.00,Wunderground v.1.15,2013-04-26 00:02:00,
2013-04-25 19:07:00,58.7,37.4,30.00,SSE,161,7.0,15.0,45,0.00,,,0.00,Wunderground v.1.15,2013-04-26 00:07:00,
2013-04-25 19:12:00,58.5,36.6,30.00,SSE,165,12.0,15.0,44,0.00,,,0.00,Wunderground v.1.15,2013-04-26 00:12:00,
2013-04-25 19:17:00,58.5,37.2,30.00,SSE,159,9.0,15.0,45,0.00,,,0.00,Wunderground v.1.15,2013-04-26 00:17:00,
2013-04-25 19:22:00,58.2,36.9,30.00,South,171,11.0,16.0,45,0.00,,,0.00,Wunderground v.1.15,2013-04-26 00:22:00,
2013-04-25 19:27:00,57.8,36.6,30.00,SSE,161,7.0,16.0,45,0.00,,,0.00,Wunderground v.1.15,2013-04-26 00:27:00,
2013-04-25 19:32:00,57.2,37.7,29.99,SSE,164,9.0,11.0,48,0.00,,,0.00,Wunderground v.1.15,2013-04-26 00:32:00,
2013-04-25 19:37:00,56.8,37.3,29.99,SSE,160,8.0,12.0,48,0.00,,,0.00,Wunderground v.1.15,2013-04-26 00:37:00,
2013-04-25 19:42:00,56.1,37.2,29.99,SSE,155,6.0,10.0,49,0.00,,,0.00,Wunderground v.1.15,2013-04-26 00:42:00,
2013-04-25 19:47:00,55.6,37.2,29.99,SSE,157,10.0,12.0,50,0.00,,,0.00,Wunderground v.1.15,2013-04-26 00:47:00,
2013-04-25 19:52:00,55.1,37.3,29.98,SSE,157,6.0,9.0,51,0.00,,,0.00,Wunderground v.1.15,2013-04-26 00:52:00,
2013-04-25 19:57:00,54.5,37.2,29.98,SSE,156,6.0,10.0,52,0.00,,,0.00,Wunderground v.1.15,2013-04-26 00:57:00,
2013-04-25 20:02:00,54.3,37.0,29.98,SSE,154,10.0,11.0,52,0.00,,,0.00,Wunderground v.1.15,2013-04-26 01:02:00,
2013-04-25 20:08:00,54.2,36.9,29.98,SSE,153,6.0,12.0,52,0.00,,,0.00,Wunderground v.1.15,2013-04-26 01:08:00,
2013-04-25 20:13:00,53.9,37.1,29.98,SSE,150,7.0,12.0,53,0.00,,,0.00,Wunderground v.1.15,2013-04-26 01:13:00,
2013-04-25 20:18:00,53.3,37.1,29.98,SSE,150,6.0,12.0,54,0.00,,,0.00,Wunderground v.1.15,2013-04-26 01:18:00,
2013-04-25 20:23:00,52.9,36.7,29.98,SSE,152,8.0,11.0,54,0.00,,,0.00,Wunderground v.1.15,2013-04-26 01:23:00,
2013-04-25 20:28:00,52.6,36.9,29.98,SSE,150,6.0,11.0,55,0.00,,,0.00,Wunderground v.1.15,2013-04-26 01:28:00,
2013-04-25 20:33:00,52.2,36.5,29.98,SSE,148,7.0,11.0,55,0.00,,,0.00,Wunderground v.1.15,2013-04-26 01:33:00,
2013-04-25 20:38:00,52.1,36.4,29.98,SSE,148,4.0,11.0,55,0.00,,,0.00,Wunderground v.1.15,2013-04-26 01:38:00,
2013-04-25 20:43:00,51.8,36.6,29.98,SE,146,5.0,9.0,56,0.00,,,0.00,Wunderground v.1.15,2013-04-26 01:43:00,
2013-04-25 20:48:00,52.2,36.5,29.98,SE,146,7.0,11.0,55,0.00,,,0.00,Wunderground v.1.15,2013-04-26 01:48:00,
2013-04-25 20:53:00,52.8,36.6,29.97,SSE,153,7.0,12.0,54,0.00,,,0.00,Wunderground v.1.15,2013-04-26 01:53:00,
2013-04-25 20:58:00,52.9,36.2,29.97,SSE,148,7.0,12.0,53,0.00,,,0.00,Wunderground v.1.15,2013-04-26 01:58:00,
2013-04-25 21:03:00,52.8,36.1,29.97,SE,146,7.0,12.0,53,0.00,,,0.00,Wunderground v.1.15,2013-04-26 02:03:00,
2013-04-25 21:08:00,52.6,36.4,29.97,SSE,153,7.0,12.0,54,0.00,,,0.00,Wunderground v.1.15,2013-04-26 02:08:00,
2013-04-25 21:13:00,52.5,36.8,29.97,SSE,148,8.0,12.0,55,0.00,,,0.00,Wunderground v.1.15,2013-04-26 02:13:00,
2013-04-25 21:18:00,52.4,36.7,29.97,SSE,150,11.0,12.0,55,0.00,,,0.00,Wunderground v.1.15,2013-04-26 02:18:00,
2013-04-25 21:23:00,52.2,36.5,29.97,SSE,150,9.0,11.0,55,0.00,,,0.00,Wunderground v.1.15,2013-04-26 02:23:00,
2013-04-25 21:28:00,51.9,36.7,29.97,SSE,148,10.0,13.0,56,0.00,,,0.00,Wunderground v.1.15,2013-04-26 02:28:00,
2013-04-25 21:33:00,51.8,37.5,29.97,SSE,151,14.0,14.0,58,0.00,,,0.00,Wunderground v.1.15,2013-04-26 02:33:00,
2013-04-25 21:38:00,51.4,36.7,29.97,SSE,149,7.0,15.0,57,0.00,,,0.00,Wunderground v.1.15,2013-04-26 02:38:00,
2013-04-25 21:43:00,50.6,36.8,29.98,SSE,156,8.0,12.0,59,0.00,,,0.00,Wunderground v.1.15,2013-04-26 02:43:00,
2013-04-25 21:48:00,50.3,36.9,29.98,SSE,152,10.0,12.0,60,0.00,,,0.00,Wunderground v.1.15,2013-04-26 02:48:00,
2013-04-25 21:53:00,50.2,36.8,29.97,SSE,148,8.0,12.0,60,0.00,,,0.00,Wunderground v.1.15,2013-04-26 02:53:00,
2013-04-25 21:58:00,50.6,36.8,29.98,SSE,153,8.0,15.0,59,0.00,,,0.00,Wunderground v.1.15,2013-04-26 02:58:00,
2013-04-25 22:03:00,50.6,36.8,29.98,SSE,157,9.0,14.0,59,0.00,,,0.00,Wunderground v.1.15,2013-04-26 03:03:00,
2013-04-25 22:08:00,50.3,36.9,29.98,SSE,153,6.0,14.0,60,0.00,,,0.00,Wunderground v.1.15,2013-04-26 03:08:00,
2013-04-25 22:13:00,50.5,36.7,29.98,SSE,154,9.0,13.0,59,0.00,,,0.00,Wunderground v.1.15,2013-04-26 03:13:00,
2013-04-25 22:18:00,50.6,36.8,29.98,SSE,154,10.0,13.0,59,0.00,,,0.00,Wunderground v.1.15,2013-04-26 03:18:00,
2013-04-25 22:23:00,51.0,36.7,29.99,SSE,157,9.0,16.0,58,0.00,,,0.00,Wunderground v.1.15,2013-04-26 03:23:00,
2013-04-25 22:28:00,51.0,36.7,29.99,SSE,164,10.0,16.0,58,0.00,,,0.00,Wunderground v.1.15,2013-04-26 03:28:00,
2013-04-25 22:33:00,51.5,36.8,30.00,SSE,162,9.0,15.0,57,0.00,,,0.00,Wunderground v.1.15,2013-04-26 03:33:00,
2013-04-25 22:38:00,51.8,37.0,30.00,SSE,163,13.0,15.0,57,0.00,,,0.00,Wunderground v.1.15,2013-04-26 03:38:00,
2013-04-25 22:43:00,51.9,36.7,30.00,SSE,165,9.0,16.0,56,0.00,,,0.00,Wunderground v.1.15,2013-04-26 03:43:00,
2013-04-25 22:48:00,51.9,36.7,30.00,South,178,10.0,16.0,56,0.00,,,0.00,Wunderground v.1.15,2013-04-26 03:48:00,
2013-04-25 22:53:00,51.6,36.9,30.00,South,171,11.0,12.0,57,0.00,,,0.00,Wunderground v.1.15,2013-04-26 03:53:00,
2013-04-25 22:58:00,51.5,36.8,30.00,SSE,168,9.0,13.0,57,0.00,,,0.00,Wunderground v.1.15,2013-04-26 03:58:00,
2013-04-25 23:01:00,51.5,36.8,30.00,South,169,8.0,12.0,57,0.00,,,0.00,Wunderground v.1.15,2013-04-26 04:01:00,
2013-04-25 23:02:00,51.5,36.8,30.00,SSE,163,10.0,13.0,57,0.00,,,0.00,Wunderground v.1.15,2013-04-26 04:02:00,
2013-04-25 23:07:00,51.5,36.8,30.00,South,169,12.0,16.0,57,0.00,,,0.00,Wunderground v.1.15,2013-04-26 04:07:00,
2013-04-25 23:12:00,51.4,37.1,30.00,SSE,167,11.0,13.0,58,0.00,,,0.00,Wunderground v.1.15,2013-04-26 04:12:00,
2013-04-25 23:17:00,51.3,37.0,29.99,SSE,158,16.0,16.0,58,0.00,,,0.00,Wunderground v.1.15,2013-04-26 04:17:00,
2013-04-25 23:22:00,51.2,36.9,29.99,SSE,161,14.0,15.0,58,0.00,,,0.00,Wunderground v.1.15,2013-04-26 04:22:00,
2013-04-25 23:27:00,50.8,37.0,30.00,SSE,161,10.0,15.0,59,0.00,,,0.00,Wunderground v.1.15,2013-04-26 04:27:00,
2013-04-25 23:32:00,50.4,37.0,29.99,SSE,153,13.0,13.0,60,0.00,,,0.00,Wunderground v.1.15,2013-04-26 04:32:00,
2013-04-25 23:37:00,50.0,37.1,29.99,SSE,153,10.0,14.0,61,0.00,,,0.00,Wunderground v.1.15,2013-04-26 04:37:00,
2013-04-25 23:42:00,49.7,37.2,29.99,SSE,156,8.0,13.0,62,0.00,,,0.00,Wunderground v.1.15,2013-04-26 04:42:00,
2013-04-25 23:55:00,49.7,37.6,30.00,SSE,166,13.0,13.0,63,0.00,,,0.00,Wunderground v.1.15,2013-04-26 04:55:00,